This is the latest recevied weather packets stored in our database for station/object W4UWO. If no packets are shown the sender has not sent any weather packets the latest 10 day(s).
| Time | Temp. | Humidity | Pressure | Rain* | Wind** | Luminosity | Snow |
|---|---|---|---|---|---|---|---|
| 1787862646 | 31.67° C | 53% | 1015.2 hPa | 0 mm | - | 152 W/m² | - |
| 1787862349 | 31.67° C | 53% | 1015.2 hPa | 0 mm | - | 688 W/m² | - |
| 1787862037 | 31.67° C | 53% | 1015.2 hPa | 0 mm | - | 691 W/m² | - |
| 1787861736 | 32.78° C | 52% | 1015.5 hPa | 0 mm | - | 178 W/m² | - |
| 1787861434 | 32.22° C | 50% | 1015.5 hPa | 0 mm | - | 737 W/m² | - |
| 1787861130 | 32.22° C | 50% | 1015.3 hPa | 0 mm | - | 696 W/m² | - |
| 1787860829 | 32.22° C | 51% | 1015.5 hPa | 0 mm | - | 705 W/m² | - |
| 1787860523 | 31.67° C | 54% | 1015.3 hPa | 0 mm | - | 724 W/m² | - |
| 1787860218 | 31.67° C | 54% | 1015.7 hPa | 0 mm | - | 772 W/m² | - |
| 1787859914 | 32.22° C | 51% | 1015.6 hPa | 0 mm | - | 162 W/m² | - |
| 1787859610 | 31.67° C | 53% | 1015.5 hPa | 0 mm | - | 751 W/m² | - |
| 1787859309 | 31.11° C | 54% | 1015.6 hPa | 0 mm | - | 799 W/m² | - |
| 1787859005 | 31.11° C | 53% | 1015.7 hPa | 0 mm | - | 179 W/m² | - |
| 1787858701 | 31.67° C | 52% | 1015.8 hPa | 0 mm | - | 193 W/m² | - |
| 1787858396 | 32.22° C | 51% | 1015.8 hPa | 0 mm | - | 207 W/m² | - |
| 1787858096 | 33.33° C | 47% | 1015.7 hPa | 0 mm | - | 281 W/m² | - |
| 1787857791 | 32.78° C | 49% | 1015.9 hPa | 0 mm | - | 869 W/m² | - |
| 1787857487 | 32.78° C | 50% | 1015.8 hPa | 0 mm | - | 910 W/m² | - |
| 1787857185 | 32.78° C | 49% | 1015.8 hPa | 0 mm | - | 957 W/m² | - |
| 1787856880 | 31.67° C | 52% | 1015.9 hPa | 0 mm | - | 824 W/m² | - |
| 1787856580 | 32.22° C | 50% | 1015.8 hPa | 0 mm | - | 283 W/m² | - |
| 1787856275 | 32.22° C | 49% | 1016 hPa | 0 mm | - | 865 W/m² | - |
| 1787855971 | 31.67° C | 50% | 1016.1 hPa | 0 mm | - | 851 W/m² | - |
| 1787855670 | 31.67° C | 52% | 1016 hPa | 0 mm | - | 879 W/m² | - |
| 1787855365 | 31.67° C | 50% | 1015.9 hPa | 0 mm | - | 901 W/m² | - |
* Rain latest hour (hover to see other rain measurements)
** Current wind speed in m/s (hover to see current wind gust speed)